createdAt,value
2023-03-04T00:30:24.779Z,0
2023-03-04T00:31:05.154Z,0
2023-03-04T00:31:45.716Z,0
2023-03-04T00:37:09.718Z,0
2023-03-04T00:37:50.214Z,0
2023-03-04T00:38:30.735Z,0
2023-03-04T00:39:11.277Z,0
2023-03-04T00:39:51.789Z,0
2023-03-04T00:40:32.311Z,0
2023-03-04T00:41:12.862Z,0
2023-03-04T00:41:53.384Z,0
2023-03-04T00:42:33.916Z,0
2023-03-04T00:46:48.550Z,0
2023-03-04T00:47:29.017Z,0
2023-03-04T00:48:09.540Z,0
2023-03-04T00:53:33.493Z,0
2023-03-04T00:54:13.963Z,0
2023-03-04T00:54:54.474Z,0
2023-03-04T00:55:34.956Z,0
2023-03-04T00:56:15.445Z,0
2023-03-04T00:56:55.953Z,0
2023-03-04T00:57:36.448Z,0
2023-03-04T00:58:16.926Z,0
2023-03-04T01:00:44.891Z,0
2023-03-04T01:01:25.431Z,0
2023-03-04T01:02:05.920Z,0
2023-03-04T01:06:49.871Z,0
2023-03-04T01:07:30.319Z,0
2023-03-04T01:08:10.834Z,0
2023-03-04T01:09:31.760Z,0
2023-03-04T01:10:12.317Z,0
2023-03-04T01:10:52.730Z,0
2023-03-04T01:11:33.211Z,0
2023-03-04T01:12:13.683Z,0
2023-03-04T01:12:54.137Z,0
2023-03-04T01:13:34.621Z,0
2023-03-04T01:20:59.864Z,0
2023-03-04T01:21:40.328Z,0
2023-03-04T01:22:20.831Z,0
2023-03-04T01:23:01.293Z,0
2023-03-04T01:23:41.762Z,0
2023-03-04T01:24:22.243Z,0
2023-03-04T01:25:02.785Z,0
2023-03-04T01:25:43.173Z,0
2023-03-04T01:27:04.149Z,0
2023-03-04T01:27:44.709Z,0
2023-03-04T01:35:09.982Z,0
2023-03-04T01:35:50.568Z,0
2023-03-04T01:36:30.925Z,0
2023-03-04T01:37:11.402Z,0
2023-03-04T01:37:51.882Z,0
2023-03-04T01:38:32.346Z,0
2023-03-04T01:39:12.816Z,0
2023-03-04T01:39:53.279Z,0
2023-03-04T01:40:33.777Z,0
2023-03-04T01:41:14.239Z,0
2023-03-04T01:41:54.759Z,0
2023-03-04T01:49:20.018Z,0
2023-03-04T01:50:00.507Z,0
2023-03-04T01:50:40.979Z,0
2023-03-04T01:51:21.476Z,0
2023-03-04T01:52:01.977Z,0
2023-03-04T01:52:42.475Z,0
2023-03-04T01:53:22.949Z,0
2023-03-04T01:54:03.431Z,0
2023-03-04T01:54:43.949Z,0
2023-03-04T01:55:24.437Z,0
2023-03-04T02:02:49.745Z,0
2023-03-04T02:03:30.220Z,0
2023-03-04T02:04:10.797Z,0
2023-03-04T02:04:51.159Z,0
2023-03-04T02:05:31.682Z,0
2023-03-04T02:06:12.209Z,0
2023-03-04T02:06:52.687Z,0
2023-03-04T02:07:33.195Z,0
2023-03-04T02:08:13.696Z,0
2023-03-04T02:08:54.199Z,0
2023-03-04T02:09:34.628Z,0
2023-03-04T02:16:59.903Z,0
2023-03-04T02:17:40.396Z,0
2023-03-04T02:18:20.904Z,0
2023-03-04T02:19:01.378Z,0
2023-03-04T02:19:41.863Z,0
2023-03-04T02:20:22.338Z,0
2023-03-04T02:21:02.804Z,0
2023-03-04T02:21:43.275Z,0
2023-03-04T02:22:23.747Z,0
2023-03-04T02:23:04.254Z,0
2023-03-04T02:23:44.704Z,0
2023-03-04T02:30:30.421Z,0
2023-03-04T02:31:10.978Z,0
2023-03-04T02:31:51.407Z,0
2023-03-04T02:32:31.982Z,0
2023-03-04T02:33:12.409Z,0
2023-03-04T02:33:52.966Z,0
2023-03-04T02:34:33.393Z,0
2023-03-04T02:35:13.912Z,0
2023-03-04T02:35:54.452Z,0
2023-03-04T02:43:19.754Z,0
2023-03-04T02:44:00.240Z,0
2023-03-04T02:44:40.752Z,0
2023-03-04T02:45:21.207Z,0
2023-03-04T02:46:01.775Z,0
2023-03-04T02:46:42.215Z,0
2023-03-04T02:47:22.700Z,0
2023-03-04T02:48:03.185Z,0
2023-03-04T02:48:43.700Z,0
2023-03-04T02:49:24.224Z,0
2023-03-04T02:50:04.657Z,0
2023-03-04T02:57:30.098Z,0
2023-03-04T02:58:10.565Z,0
2023-03-04T02:58:51.033Z,0
2023-03-04T02:59:31.520Z,0
2023-03-04T03:00:12.004Z,0
2023-03-04T03:00:52.485Z,0
2023-03-04T03:01:33.022Z,0
2023-03-04T03:02:13.477Z,0
2023-03-04T03:02:54.042Z,0
2023-03-04T03:03:34.489Z,0
2023-03-04T03:08:44.450Z,0
2023-03-04T03:09:24.928Z,0
2023-03-04T03:10:05.400Z,0
2023-03-04T03:15:29.308Z,0
2023-03-04T03:16:09.841Z,0
2023-03-04T03:16:50.293Z,0
2023-03-04T03:17:30.772Z,0
2023-03-04T03:18:11.311Z,0
2023-03-04T03:18:51.788Z,0
2023-03-04T03:19:32.283Z,0
2023-03-04T03:20:12.772Z,0
2023-03-04T03:20:53.243Z,0
2023-03-04T03:21:33.812Z,0
2023-03-04T03:28:59.157Z,0
2023-03-04T03:29:39.647Z,0
2023-03-04T03:30:20.161Z,0
2023-03-04T03:31:00.675Z,0
2023-03-04T03:31:41.296Z,0
2023-03-04T03:33:02.241Z,0
2023-03-04T03:33:42.741Z,0
2023-03-04T03:34:23.229Z,0
2023-03-04T03:35:03.752Z,0
2023-03-04T03:42:29.283Z,0
2023-03-04T03:43:09.787Z,0
2023-03-04T03:43:50.265Z,0
2023-03-04T03:44:30.750Z,0
2023-03-04T03:45:11.295Z,0
2023-03-04T03:45:51.893Z,0
2023-03-04T03:46:32.334Z,0
2023-03-04T03:47:12.846Z,0
2023-03-04T03:47:53.329Z,0
2023-03-04T03:48:33.872Z,0
2023-03-04T03:55:59.297Z,0
2023-03-04T03:56:39.765Z,0
2023-03-04T03:57:20.260Z,0
2023-03-04T03:58:00.800Z,0
2023-03-04T03:58:41.298Z,0
2023-03-04T03:59:21.816Z,0
2023-03-04T04:00:02.339Z,0
2023-03-04T04:00:42.874Z,0
2023-03-04T04:01:23.339Z,0
2023-03-04T04:02:03.907Z,0
2023-03-04T04:09:29.317Z,0
2023-03-04T04:10:09.801Z,0
2023-03-04T04:10:50.289Z,0
2023-03-04T04:11:30.770Z,0
2023-03-04T04:12:11.254Z,0
2023-03-04T04:12:51.773Z,0
2023-03-04T04:13:32.249Z,0
2023-03-04T04:14:12.730Z,0
2023-03-04T04:14:53.256Z,0
2023-03-04T04:15:33.752Z,0
2023-03-04T04:22:19.314Z,0
2023-03-04T04:22:59.797Z,0
2023-03-04T04:23:40.358Z,0
2023-03-04T04:24:20.838Z,0
2023-03-04T04:25:01.326Z,0
2023-03-04T04:25:41.812Z,0
2023-03-04T04:26:22.344Z,0
2023-03-04T04:27:02.846Z,0
2023-03-04T04:27:43.350Z,0
2023-03-04T04:28:23.892Z,0
2023-03-04T04:35:49.413Z,0
2023-03-04T04:36:29.923Z,0
2023-03-04T04:37:10.419Z,0
2023-03-04T04:37:50.941Z,0
2023-03-04T04:38:31.454Z,0
2023-03-04T04:39:11.973Z,0
2023-03-04T04:39:52.461Z,0
2023-03-04T04:40:32.976Z,0
2023-03-04T04:41:13.446Z,0
2023-03-04T04:41:53.941Z,0
2023-03-04T04:49:19.379Z,0
2023-03-04T04:49:59.887Z,0
2023-03-04T04:50:40.402Z,0
2023-03-04T04:51:20.913Z,0
2023-03-04T04:52:01.461Z,0
2023-03-04T04:52:41.930Z,0
2023-03-04T04:53:22.415Z,0
2023-03-04T04:54:02.957Z,0
2023-03-04T04:54:43.454Z,0
2023-03-04T04:55:23.930Z,0
2023-03-04T05:02:49.337Z,0
2023-03-04T05:03:29.879Z,0
2023-03-04T05:04:10.312Z,0
2023-03-04T05:04:50.794Z,0
2023-03-04T05:05:31.344Z,0
2023-03-04T05:06:11.762Z,0
2023-03-04T05:06:52.299Z,0
2023-03-04T05:11:12.683Z,0
2023-03-04T05:11:53.204Z,0
2023-03-04T05:12:33.675Z,0
2023-03-04T05:17:17.353Z,0
2023-03-04T05:17:57.885Z,0
2023-03-04T05:18:38.389Z,0
2023-03-04T05:19:18.879Z,0
2023-03-04T05:19:59.425Z,0
2023-03-04T05:20:39.940Z,0
2023-03-04T05:21:20.417Z,0
2023-03-04T05:22:00.931Z,0
2023-03-04T05:22:41.422Z,0
2023-03-04T05:23:21.924Z,0
2023-03-04T05:30:47.645Z,0
2023-03-04T05:31:28.134Z,0
2023-03-04T05:32:08.635Z,0
2023-03-04T05:32:49.158Z,0
2023-03-04T05:33:29.684Z,0
2023-03-04T05:34:10.139Z,0
2023-03-04T05:35:31.127Z,0
2023-03-04T05:36:11.694Z,0
2023-03-04T05:36:52.225Z,0
2023-03-04T05:43:37.345Z,0
2023-03-04T05:44:17.837Z,0
2023-03-04T05:44:58.335Z,0
2023-03-04T05:45:38.857Z,0
2023-03-04T05:46:19.435Z,0
2023-03-04T05:46:59.901Z,0
2023-03-04T05:47:40.384Z,0
2023-03-04T05:48:20.890Z,0
2023-03-04T05:49:01.450Z,0
2023-03-04T05:49:41.927Z,0
2023-03-04T06:32:13.109Z,0
2023-03-04T06:32:53.521Z,0
2023-03-04T06:33:34.007Z,0
2023-03-04T06:38:58.062Z,0
2023-03-04T06:39:38.600Z,0
2023-03-04T06:40:19.075Z,0
2023-03-04T06:40:59.677Z,0
2023-03-04T06:41:40.123Z,0
2023-03-04T06:42:20.613Z,0
2023-03-04T06:43:01.086Z,0
2023-03-04T06:43:41.594Z,0
2023-03-04T06:44:22.088Z,0
2023-03-04T06:45:09.144Z,0
2023-03-04T06:46:30.652Z,0
2023-03-04T06:47:10.617Z,0
2023-03-04T06:47:51.124Z,0
2023-03-04T06:48:31.627Z,0
2023-03-04T06:49:12.157Z,0
2023-03-04T06:49:52.652Z,0
2023-03-04T06:56:37.646Z,0
2023-03-04T06:57:18.190Z,0
2023-03-04T06:57:58.610Z,0
2023-03-04T06:58:39.151Z,0
2023-03-04T06:59:19.612Z,0
2023-03-04T07:00:00.151Z,0
2023-03-04T07:00:40.689Z,0
2023-03-04T07:01:21.195Z,0
2023-03-04T07:02:01.763Z,0
2023-03-04T07:02:42.305Z,0
2023-03-04T07:10:07.754Z,0
2023-03-04T07:10:48.341Z,0
2023-03-04T07:11:28.822Z,0
2023-03-04T07:12:09.336Z,0
2023-03-04T07:12:49.817Z,0
2023-03-04T07:13:30.363Z,0
2023-03-04T07:14:10.857Z,0
2023-03-04T07:14:51.386Z,0
2023-03-04T07:15:31.938Z,0
2023-03-04T07:16:12.369Z,0
2023-03-04T07:23:37.824Z,0
2023-03-04T07:24:18.367Z,0
2023-03-04T07:24:58.892Z,0
2023-03-04T07:25:39.381Z,0
2023-03-04T07:26:19.924Z,0
2023-03-04T07:27:00.530Z,0
2023-03-04T07:27:40.961Z,0
2023-03-04T07:28:21.526Z,0
2023-03-04T07:29:02.000Z,0
2023-03-04T07:29:42.521Z,0
2023-03-04T07:37:08.041Z,0
2023-03-04T07:37:48.546Z,0
2023-03-04T07:38:29.090Z,0
2023-03-04T07:39:09.564Z,0
2023-03-04T07:39:50.089Z,0
2023-03-04T07:40:30.651Z,0
2023-03-04T07:41:11.134Z,0
2023-03-04T07:41:51.660Z,0
2023-03-04T07:42:32.193Z,0
2023-03-04T07:49:57.861Z,0
2023-03-04T07:50:38.302Z,0
2023-03-04T07:51:18.835Z,0
2023-03-04T07:51:59.290Z,0
2023-03-04T07:52:39.787Z,0
2023-03-04T07:53:20.276Z,0
2023-03-04T07:54:00.757Z,0
2023-03-04T07:54:41.245Z,0
2023-03-04T07:55:21.779Z,0
2023-03-04T07:56:02.812Z,0
2023-03-04T08:03:27.811Z,5
2023-03-04T08:04:08.336Z,5
2023-03-04T08:04:48.817Z,5
2023-03-04T08:05:29.348Z,5
2023-03-04T08:06:09.805Z,5
2023-03-04T08:06:50.346Z,5
2023-03-04T08:07:30.880Z,5
2023-03-04T08:08:11.350Z,5
2023-03-04T08:08:51.820Z,5
2023-03-04T08:09:32.319Z,5
2023-03-04T08:16:57.927Z,5
2023-03-04T08:17:38.481Z,5
2023-03-04T08:18:18.960Z,5
2023-03-04T08:18:59.469Z,5
2023-03-04T08:19:39.959Z,5
2023-03-04T08:20:20.480Z,5
2023-03-04T08:21:01.015Z,5
2023-03-04T08:21:41.480Z,5
2023-03-04T08:22:21.993Z,5
2023-03-04T08:23:02.523Z,5
2023-03-04T08:29:07.768Z,5
2023-03-04T08:29:48.209Z,5
2023-03-04T08:30:28.718Z,5
2023-03-04T08:31:09.451Z,5
2023-03-04T08:31:50.001Z,5
2023-03-04T08:32:30.451Z,5
2023-03-04T08:33:10.796Z,5
2023-03-04T08:33:51.309Z,5
2023-03-04T08:34:31.882Z,5
2023-03-04T08:35:12.463Z,5
2023-03-04T08:42:37.991Z,5
2023-03-04T08:43:18.477Z,5
2023-03-04T08:43:59.072Z,5
2023-03-04T08:44:39.610Z,5
2023-03-04T08:45:20.074Z,5
2023-03-04T08:46:00.580Z,5
2023-03-04T08:46:41.063Z,5
2023-03-04T08:47:21.613Z,5
2023-03-04T08:48:02.071Z,5
2023-03-04T08:55:27.691Z,10
2023-03-04T08:56:08.264Z,10
2023-03-04T08:56:48.790Z,10
2023-03-04T08:57:29.271Z,10
2023-03-04T08:58:09.810Z,15
2023-03-04T08:58:50.286Z,15
2023-03-04T08:59:31.149Z,15
2023-03-04T09:00:11.653Z,15
2023-03-04T09:00:52.143Z,15
2023-03-04T09:01:32.728Z,15
2023-03-04T09:08:17.798Z,10
2023-03-04T09:08:58.312Z,10
2023-03-04T09:09:38.911Z,10
2023-03-04T09:10:19.346Z,10
2023-03-04T09:10:59.873Z,10
2023-03-04T09:11:40.449Z,15
2023-03-04T09:12:20.880Z,15
2023-03-04T09:13:01.413Z,15
2023-03-04T09:13:41.988Z,15
2023-03-04T09:14:22.417Z,15
2023-03-04T09:21:47.984Z,20
2023-03-04T09:22:28.484Z,20
2023-03-04T09:23:09.709Z,20
2023-03-04T09:23:50.236Z,20
2023-03-04T09:24:30.789Z,20
2023-03-04T09:25:13.086Z,20
2023-03-04T09:25:51.754Z,20
2023-03-04T09:26:32.329Z,20
2023-03-04T09:33:57.776Z,40
2023-03-04T09:34:38.333Z,40
2023-03-04T09:35:18.865Z,40
2023-03-04T09:35:59.479Z,40
2023-03-04T09:36:39.774Z,40
2023-03-04T09:37:20.267Z,35
2023-03-04T09:38:00.824Z,30
2023-03-04T09:38:41.292Z,30
2023-03-04T09:39:21.803Z,30
2023-03-04T09:40:02.320Z,30
2023-03-04T09:47:27.932Z,20
2023-03-04T09:48:08.407Z,20
2023-03-04T09:48:48.934Z,15
2023-03-04T09:49:29.455Z,15
2023-03-04T09:50:09.940Z,20
2023-03-04T09:50:50.482Z,20
2023-03-04T09:51:30.988Z,20
2023-03-04T09:52:11.481Z,20
2023-03-04T09:52:52.006Z,20
2023-03-04T09:53:32.490Z,15
2023-03-04T10:00:17.712Z,20
2023-03-04T10:00:58.315Z,15
2023-03-04T10:01:38.735Z,20
2023-03-04T10:02:19.145Z,20
2023-03-04T10:02:59.739Z,20
2023-03-04T10:03:40.165Z,15
2023-03-04T10:04:20.659Z,15
2023-03-04T10:05:01.284Z,15
2023-03-04T10:05:41.618Z,15
2023-03-04T10:06:22.111Z,15
2023-03-04T10:07:02.657Z,15
2023-03-04T10:13:59.002Z,25
2023-03-04T10:14:39.541Z,25
2023-03-04T10:15:19.994Z,25
2023-03-04T10:19:22.917Z,15
2023-03-04T10:20:03.406Z,15
2023-03-04T10:20:43.931Z,15
2023-03-04T10:21:24.452Z,15
2023-03-04T10:22:04.900Z,15
2023-03-04T10:22:45.412Z,15
2023-03-04T10:23:25.963Z,15
2023-03-04T10:24:06.427Z,15
2023-03-04T10:24:46.936Z,15
2023-03-04T10:25:27.430Z,15
2023-03-04T10:32:13.497Z,15
2023-03-04T10:32:54.000Z,10
2023-03-04T10:33:34.493Z,10
2023-03-04T10:34:14.980Z,10
2023-03-04T10:34:55.506Z,10
2023-03-04T10:35:35.980Z,10
2023-03-04T10:36:16.459Z,10
2023-03-04T10:36:56.976Z,10
2023-03-04T10:37:37.428Z,10
2023-03-04T10:45:02.848Z,20
2023-03-04T10:45:43.385Z,15
2023-03-04T10:46:25.388Z,15
2023-03-04T10:47:04.325Z,15
2023-03-04T10:47:44.822Z,10
2023-03-04T10:48:25.295Z,10
2023-03-04T10:49:05.798Z,10
2023-03-04T10:49:46.280Z,10
2023-03-04T10:50:26.792Z,10
2023-03-04T10:51:07.314Z,15
2023-03-04T10:51:47.774Z,20
2023-03-04T10:59:13.113Z,15
2023-03-04T11:00:34.085Z,20
2023-03-04T11:01:14.759Z,20
2023-03-04T11:01:55.084Z,20
2023-03-04T11:02:35.600Z,25
2023-03-04T11:03:16.231Z,25
2023-03-04T11:03:56.724Z,20
2023-03-04T11:06:34.934Z,25
2023-03-04T11:07:15.418Z,25
2023-03-04T11:07:57.402Z,30
2023-03-04T11:13:19.830Z,20
2023-03-04T11:14:00.353Z,20
2023-03-04T11:14:40.847Z,20
2023-03-04T11:15:21.297Z,20
2023-03-04T11:16:01.818Z,20
2023-03-04T11:16:42.386Z,20
2023-03-04T11:20:21.444Z,30
2023-03-04T11:21:01.951Z,25
2023-03-04T11:21:42.414Z,25
2023-03-04T11:27:06.343Z,35
2023-03-04T11:27:46.856Z,35
2023-03-04T11:28:27.343Z,35
2023-03-04T11:29:07.835Z,35
2023-03-04T11:31:21.681Z,30
2023-03-04T11:32:02.125Z,30
2023-03-04T11:32:42.501Z,25
2023-03-04T11:38:06.393Z,10
2023-03-04T11:38:46.970Z,10
2023-03-04T11:39:27.424Z,10
2023-03-04T11:40:07.918Z,10
2023-03-04T11:40:48.456Z,10
2023-03-04T11:41:28.911Z,10
2023-03-04T11:42:09.373Z,10
2023-03-04T11:42:49.847Z,10
2023-03-04T11:44:10.872Z,10
2023-03-04T11:51:36.426Z,10
2023-03-04T11:52:17.012Z,10
2023-03-04T11:52:57.478Z,10
2023-03-04T11:53:37.981Z,10
2023-03-04T12:32:38.836Z,25
2023-03-04T12:33:19.199Z,25
2023-03-04T12:33:59.122Z,20
2023-03-04T12:38:42.563Z,20
2023-03-04T12:39:23.057Z,15
2023-03-04T12:40:03.581Z,15
2023-03-04T12:40:44.041Z,15
2023-03-04T12:41:24.539Z,15
2023-03-04T12:42:05.064Z,15
2023-03-04T12:42:45.501Z,15
2023-03-04T12:43:26.086Z,10
2023-03-04T12:44:06.524Z,10
2023-03-04T12:44:47.051Z,10
2023-03-04T12:52:12.548Z,10
2023-03-04T12:52:53.054Z,10
2023-03-04T12:53:33.537Z,10
2023-03-04T12:54:14.040Z,10
2023-03-04T12:54:54.573Z,10
2023-03-04T12:55:35.069Z,10
2023-03-04T12:56:16.230Z,10
2023-03-04T12:56:56.939Z,10
2023-03-04T13:04:22.438Z,10
2023-03-04T13:05:03.016Z,10
2023-03-04T13:05:43.445Z,5
2023-03-04T13:06:24.006Z,5
2023-03-04T13:07:04.483Z,5
2023-03-04T13:07:44.968Z,5
2023-03-04T13:08:25.518Z,5
2023-03-04T13:09:06.008Z,5
2023-03-04T13:09:46.511Z,10
2023-03-04T13:12:26.354Z,10
2023-03-04T13:13:07.031Z,10
2023-03-04T13:13:47.479Z,10
2023-03-04T13:17:10.945Z,15
2023-03-04T13:17:51.387Z,15
2023-03-04T13:18:31.868Z,15
2023-03-04T13:19:12.377Z,15
2023-03-04T13:19:53.008Z,20
2023-03-04T13:20:33.402Z,20
2023-03-04T13:21:13.889Z,20
2023-03-04T13:21:54.367Z,20
2023-03-04T13:22:34.863Z,20
2023-03-04T13:23:15.401Z,15
2023-03-04T13:23:55.888Z,15
2023-03-04T13:30:41.016Z,15
2023-03-04T13:31:21.524Z,15
2023-03-04T13:32:02.077Z,10
2023-03-04T13:32:44.243Z,10
2023-03-04T13:33:23.049Z,10
2023-03-04T13:35:36.024Z,10
2023-03-04T13:36:16.599Z,10
2023-03-04T13:36:57.137Z,10
2023-03-04T13:41:40.652Z,5
2023-03-04T13:42:21.175Z,5
2023-03-04T13:43:01.660Z,5
2023-03-04T13:43:42.164Z,5
2023-03-04T13:44:22.650Z,5
2023-03-04T13:45:03.179Z,5
2023-03-04T13:45:43.717Z,5
2023-03-04T13:46:24.337Z,5
2023-03-04T13:47:04.732Z,5
2023-03-04T13:47:45.238Z,5
2023-03-04T13:54:31.129Z,10
2023-03-04T13:55:11.606Z,10
2023-03-04T13:55:52.190Z,10
2023-03-04T13:56:32.991Z,10
2023-03-04T13:57:13.154Z,10
2023-03-04T13:57:53.668Z,10
2023-03-04T13:58:34.113Z,10
2023-03-04T13:59:14.654Z,10
2023-03-04T13:59:55.103Z,10
2023-03-04T14:00:35.665Z,10
2023-03-04T14:08:33.729Z,10
2023-03-04T14:09:14.244Z,10
2023-03-04T14:09:54.698Z,10
2023-03-04T14:14:38.455Z,10
2023-03-04T14:15:19.081Z,10
2023-03-04T14:15:59.570Z,10
2023-03-04T14:16:40.070Z,10
2023-03-04T14:17:20.469Z,10
2023-03-04T14:18:01.053Z,10
2023-03-04T14:18:41.530Z,10
2023-03-04T14:19:21.985Z,10
2023-03-04T14:20:02.485Z,10
2023-03-04T14:20:42.994Z,10
2023-03-04T14:28:08.620Z,5
2023-03-04T14:28:49.110Z,5
2023-03-04T14:29:29.622Z,5
2023-03-04T14:30:10.143Z,5
2023-03-04T14:30:50.639Z,5
2023-03-04T14:31:31.199Z,5
2023-03-04T14:32:52.192Z,5
2023-03-04T14:33:32.640Z,5
2023-03-04T14:34:13.164Z,5
2023-03-04T14:41:38.729Z,5
2023-03-04T14:42:19.254Z,5
2023-03-04T14:42:59.779Z,5
2023-03-04T14:43:40.228Z,5
2023-03-04T14:44:20.732Z,5
2023-03-04T14:45:41.808Z,5
2023-03-04T14:46:22.288Z,5
2023-03-04T14:47:07.757Z,5
2023-03-04T14:47:43.310Z,5
2023-03-04T14:54:40.881Z,5
2023-03-04T14:55:21.278Z,5
2023-03-04T14:56:01.765Z,5
2023-03-04T15:01:25.814Z,5
2023-03-04T15:02:06.254Z,5
2023-03-04T15:02:46.775Z,5
2023-03-04T15:03:27.265Z,5
2023-03-04T15:04:07.784Z,5
2023-03-04T15:04:48.208Z,5
2023-03-04T15:05:28.722Z,5
2023-03-04T15:06:09.213Z,5
2023-03-04T15:08:47.370Z,5
2023-03-04T15:09:27.844Z,5
2023-03-04T15:10:08.378Z,5
2023-03-04T15:15:32.328Z,5
2023-03-04T15:16:12.881Z,5
2023-03-04T15:16:53.394Z,5
2023-03-04T15:17:34.791Z,5
2023-03-04T15:18:15.298Z,5
2023-03-04T15:18:55.790Z,5
2023-03-04T15:19:36.299Z,5
2023-03-04T15:20:16.777Z,5
2023-03-04T15:27:42.158Z,0
2023-03-04T15:28:22.657Z,0
2023-03-04T15:29:03.232Z,0
2023-03-04T15:29:43.676Z,0
2023-03-04T15:30:24.160Z,0
2023-03-04T15:31:04.768Z,0
2023-03-04T15:31:45.180Z,5
2023-03-04T15:32:25.731Z,0
2023-03-04T15:33:06.220Z,0
2023-03-04T15:33:46.696Z,0
2023-03-04T15:41:12.241Z,0
2023-03-04T15:41:52.742Z,0
2023-03-04T15:42:33.270Z,0
2023-03-04T15:43:13.834Z,0
2023-03-04T15:43:54.354Z,0
2023-03-04T15:44:34.855Z,0
2023-03-04T15:45:15.294Z,0
2023-03-04T15:45:55.867Z,0
2023-03-04T15:46:36.359Z,0
2023-03-04T15:47:16.787Z,0
2023-03-04T15:54:42.317Z,0
2023-03-04T15:55:22.818Z,0
2023-03-04T15:56:03.346Z,0
2023-03-04T15:56:43.799Z,0
2023-03-04T15:57:24.251Z,0
2023-03-04T15:58:04.773Z,0
2023-03-04T15:58:45.241Z,0
2023-03-04T15:59:25.786Z,0
2023-03-04T16:00:06.327Z,0
2023-03-04T16:00:46.776Z,0
2023-03-04T16:08:12.440Z,0
2023-03-04T16:08:52.928Z,0
2023-03-04T16:09:33.451Z,0
2023-03-04T16:10:13.949Z,0
2023-03-04T16:10:54.490Z,0
2023-03-04T16:11:34.968Z,0
2023-03-04T16:12:15.484Z,0
2023-03-04T16:12:55.889Z,0
2023-03-04T16:13:36.420Z,0
2023-03-04T16:14:16.953Z,0
2023-03-04T16:21:01.916Z,0
2023-03-04T16:21:42.402Z,0
2023-03-04T16:22:22.889Z,0
2023-03-04T16:23:03.401Z,0
2023-03-04T16:23:44.001Z,0
2023-03-04T16:24:24.530Z,0
2023-03-04T16:25:05.047Z,0
2023-03-04T16:25:45.533Z,0
2023-03-04T16:26:26.041Z,0
2023-03-04T16:27:06.523Z,0
2023-03-04T16:34:32.047Z,0
2023-03-04T16:35:12.570Z,0
2023-03-04T16:35:53.245Z,0
2023-03-04T16:36:33.613Z,0
2023-03-04T16:37:14.063Z,0
2023-03-04T16:37:54.548Z,0
2023-03-04T16:38:35.032Z,0
2023-03-04T16:39:15.496Z,0
2023-03-04T16:39:55.974Z,0
2023-03-04T16:40:36.502Z,0
2023-03-04T16:48:02.084Z,0
2023-03-04T16:48:43.145Z,0
2023-03-04T16:49:23.089Z,0
2023-03-04T16:50:03.593Z,0
2023-03-04T16:50:44.079Z,0
2023-03-04T16:51:24.574Z,0
2023-03-04T16:52:05.110Z,0
2023-03-04T16:52:45.650Z,0
2023-03-04T16:53:26.089Z,0
2023-03-04T16:54:06.599Z,0
2023-03-04T17:01:32.183Z,0
2023-03-04T17:02:12.553Z,0
2023-03-04T17:02:53.148Z,0
2023-03-04T17:03:33.567Z,0
2023-03-04T17:04:14.113Z,0
2023-03-04T17:04:54.596Z,0
2023-03-04T17:05:35.075Z,0
2023-03-04T17:06:15.536Z,0
2023-03-04T17:06:56.037Z,0
2023-03-04T17:07:36.564Z,0
2023-03-04T17:11:04.847Z,0
2023-03-04T17:11:45.335Z,0
2023-03-04T17:12:25.821Z,0
2023-03-04T17:13:06.314Z,0
2023-03-04T17:13:46.781Z,0
2023-03-04T17:20:32.730Z,0
2023-03-04T17:21:13.220Z,0
2023-03-04T17:21:53.730Z,0
2023-03-04T17:22:34.213Z,0
2023-03-04T17:23:14.719Z,0
2023-03-04T17:23:55.256Z,0
2023-03-04T17:24:35.694Z,0
2023-03-04T17:25:16.201Z,0
2023-03-04T17:25:56.731Z,0
2023-03-04T17:33:22.181Z,0
2023-03-04T17:34:02.686Z,0
2023-03-04T17:34:43.217Z,0
2023-03-04T17:35:23.720Z,0
2023-03-04T17:36:04.207Z,0
2023-03-04T17:37:25.176Z,0
2023-03-04T17:38:05.636Z,0
2023-03-04T17:38:46.184Z,0
2023-03-04T17:39:26.620Z,0
2023-03-04T17:46:52.442Z,0
2023-03-04T17:47:33.752Z,0
2023-03-04T17:48:13.405Z,0
2023-03-04T17:48:53.891Z,0
2023-03-04T17:49:34.376Z,0
2023-03-04T17:50:14.898Z,0
2023-03-04T17:50:55.432Z,0
2023-03-04T17:51:35.967Z,0
2023-03-04T17:52:16.465Z,0
2023-03-04T17:52:56.949Z,0
2023-03-04T18:33:46.839Z,0
2023-03-04T18:34:27.272Z,0
2023-03-04T18:35:07.752Z,0
2023-03-04T18:40:31.850Z,0
2023-03-04T18:41:12.276Z,0
2023-03-04T18:41:52.763Z,0
2023-03-04T18:42:33.294Z,0
2023-03-04T18:43:14.494Z,0
2023-03-04T18:43:55.005Z,0
2023-03-04T18:44:35.488Z,0
2023-03-04T18:45:15.983Z,0
2023-03-04T18:45:56.568Z,0
2023-03-04T18:52:01.899Z,0
2023-03-04T18:52:42.460Z,0
2023-03-04T18:53:23.021Z,0
2023-03-04T18:54:04.157Z,0
2023-03-04T18:54:43.846Z,0
2023-03-04T18:55:24.352Z,0
2023-03-04T18:56:04.920Z,0
2023-03-04T18:56:45.408Z,0
2023-03-04T18:58:06.389Z,0
2023-03-04T19:05:31.860Z,0
2023-03-04T19:06:12.324Z,0
2023-03-04T19:06:52.787Z,0
2023-03-04T19:07:33.260Z,0
2023-03-04T19:08:13.743Z,0
2023-03-04T19:08:54.239Z,0
2023-03-04T19:09:34.764Z,0
2023-03-04T19:10:15.251Z,0
2023-03-04T19:10:55.760Z,0
2023-03-04T19:11:36.248Z,0
2023-03-04T19:18:21.787Z,0
2023-03-04T19:19:02.321Z,0
2023-03-04T19:19:42.824Z,0
2023-03-04T19:20:23.348Z,0
2023-03-04T19:21:05.365Z,0
2023-03-04T19:21:45.148Z,0
2023-03-04T19:22:24.920Z,0
2023-03-04T19:23:05.446Z,0
2023-03-04T19:23:46.077Z,0
2023-03-04T19:24:26.523Z,0
2023-03-04T19:31:11.542Z,0
2023-03-04T19:31:51.960Z,0
2023-03-04T19:32:32.479Z,0
2023-03-04T19:33:12.953Z,0
2023-03-04T19:33:53.498Z,0
2023-03-04T19:34:33.990Z,0
2023-03-04T19:35:14.483Z,0
2023-03-04T19:35:55.045Z,0
2023-03-04T19:36:35.427Z,0
2023-03-04T19:37:15.906Z,0
2023-03-04T19:37:56.429Z,0
2023-03-04T19:45:21.880Z,0
2023-03-04T19:46:02.402Z,0
2023-03-04T19:46:42.934Z,0
2023-03-04T19:47:24.135Z,0
2023-03-04T19:48:04.661Z,0
2023-03-04T19:48:45.218Z,0
2023-03-04T19:49:25.644Z,0
2023-03-04T19:50:06.189Z,0
2023-03-04T19:57:31.570Z,0
2023-03-04T19:58:12.062Z,0
2023-03-04T19:58:52.614Z,0
2023-03-04T19:59:33.114Z,0
2023-03-04T20:00:13.790Z,0
2023-03-04T20:00:54.145Z,0
2023-03-04T20:01:34.651Z,0
2023-03-04T20:02:15.074Z,0
2023-03-04T20:02:55.579Z,0
2023-03-04T20:03:36.110Z,0
2023-03-04T20:09:41.512Z,0
2023-03-04T20:10:21.983Z,0
2023-03-04T20:11:02.529Z,0
2023-03-04T20:11:56.484Z,0
2023-03-04T20:12:23.515Z,0
2023-03-04T20:13:04.026Z,0
2023-03-04T20:13:44.512Z,0
2023-03-04T20:14:24.982Z,0
2023-03-04T20:15:05.465Z,0
2023-03-04T20:15:45.987Z,0
2023-03-04T20:16:26.465Z,0
2023-03-04T20:23:11.619Z,0
2023-03-04T20:23:52.133Z,0
2023-03-04T20:24:32.737Z,0
2023-03-04T20:25:13.180Z,0
2023-03-04T20:25:53.651Z,0
2023-03-04T20:26:34.148Z,0
2023-03-04T20:27:14.674Z,0
2023-03-04T20:27:55.166Z,0
2023-03-04T20:28:35.742Z,0
2023-03-04T20:29:16.236Z,0
2023-03-04T20:36:01.651Z,0
2023-03-04T20:36:42.171Z,0
2023-03-04T20:37:22.651Z,0
2023-03-04T20:38:03.171Z,0
2023-03-04T20:38:43.668Z,0
2023-03-04T20:39:29.374Z,0
2023-03-04T20:40:04.661Z,0
2023-03-04T20:40:45.662Z,0
2023-03-04T20:41:26.144Z,0
2023-03-04T20:48:51.652Z,0
2023-03-04T20:49:32.148Z,0
2023-03-04T20:50:12.656Z,0
2023-03-04T20:50:53.138Z,0
2023-03-04T20:51:33.621Z,0
2023-03-04T20:52:14.125Z,0
2023-03-04T20:52:54.652Z,0
2023-03-04T20:53:35.184Z,0
2023-03-04T20:54:15.640Z,0
2023-03-04T20:54:56.118Z,0
2023-03-04T21:02:21.711Z,0
2023-03-04T21:03:02.211Z,0
2023-03-04T21:03:43.642Z,0
2023-03-04T21:04:24.186Z,0
2023-03-04T21:05:04.625Z,0
2023-03-04T21:05:45.140Z,0
2023-03-04T21:06:25.634Z,0
2023-03-04T21:07:06.144Z,0
2023-03-04T21:14:31.515Z,0
2023-03-04T21:15:12.000Z,0
2023-03-04T21:15:52.614Z,0
2023-03-04T21:16:33.034Z,0
2023-03-04T21:17:13.533Z,0
2023-03-04T21:17:54.023Z,0
2023-03-04T21:18:34.545Z,0
2023-03-04T21:19:15.033Z,0
2023-03-04T21:19:55.561Z,0
2023-03-04T21:20:36.131Z,0
2023-03-04T21:28:01.698Z,0
2023-03-04T21:28:42.205Z,0
2023-03-04T21:29:22.692Z,0
2023-03-04T21:30:03.223Z,0
2023-03-04T21:30:43.675Z,0
2023-03-04T21:31:24.383Z,0
2023-03-04T21:32:21.046Z,0
2023-03-04T21:32:45.755Z,0
2023-03-04T21:33:26.381Z,0
2023-03-04T21:37:21.246Z,0
2023-03-04T21:38:01.745Z,0
2023-03-04T21:38:42.214Z,0
2023-03-04T21:44:06.182Z,0
2023-03-04T21:44:51.048Z,0
2023-03-04T21:45:27.219Z,0
2023-03-04T21:46:07.752Z,0
2023-03-04T21:46:48.298Z,0
2023-03-04T21:47:28.710Z,0
2023-03-04T21:48:09.273Z,0
2023-03-04T21:48:49.726Z,0
2023-03-04T21:49:30.247Z,0
2023-03-04T21:50:10.786Z,0
2023-03-04T21:57:36.282Z,0
2023-03-04T21:58:16.793Z,0
2023-03-04T21:58:57.320Z,0
2023-03-04T21:59:37.781Z,0
2023-03-04T22:02:05.704Z,0
2023-03-04T22:02:46.168Z,0
2023-03-04T22:03:26.629Z,0
2023-03-04T22:08:50.684Z,0
2023-03-04T22:09:31.147Z,0
2023-03-04T22:10:11.681Z,0
2023-03-04T22:10:52.179Z,0
2023-03-04T22:11:32.661Z,0
2023-03-04T22:12:13.147Z,0
2023-03-04T22:12:53.612Z,0